sensor_id;sensor_type;location;lat;lon;timestamp;P1;durP1;ratioP1;P2;durP2;ratioP2
22963;SDS011;11648;49.306;6.934;2024-03-29T00:00:52;2.53;;;0.60;;
22963;SDS011;11648;49.306;6.934;2024-03-29T00:03:17;3.33;;;0.80;;
22963;SDS011;11648;49.306;6.934;2024-03-29T00:05:43;3.83;;;1.00;;
22963;SDS011;11648;49.306;6.934;2024-03-29T00:08:10;2.30;;;0.70;;
22963;SDS011;11648;49.306;6.934;2024-03-29T00:10:36;3.10;;;1.00;;
22963;SDS011;11648;49.306;6.934;2024-03-29T00:13:02;2.10;;;0.73;;
22963;SDS011;11648;49.306;6.934;2024-03-29T00:15:28;3.03;;;0.90;;
22963;SDS011;11648;49.306;6.934;2024-03-29T00:17:54;1.97;;;0.77;;
22963;SDS011;11648;49.306;6.934;2024-03-29T00:20:20;4.13;;;1.07;;
22963;SDS011;11648;49.306;6.934;2024-03-29T00:22:47;5.00;;;1.10;;
22963;SDS011;11648;49.306;6.934;2024-03-29T00:25:12;3.47;;;1.10;;
22963;SDS011;11648;49.306;6.934;2024-03-29T00:27:38;3.57;;;0.97;;
22963;SDS011;11648;49.306;6.934;2024-03-29T00:30:04;2.50;;;1.00;;
22963;SDS011;11648;49.306;6.934;2024-03-29T00:32:31;3.53;;;0.90;;
22963;SDS011;11648;49.306;6.934;2024-03-29T00:34:57;4.03;;;0.77;;
22963;SDS011;11648;49.306;6.934;2024-03-29T00:37:23;2.57;;;0.93;;
22963;SDS011;11648;49.306;6.934;2024-03-29T00:39:49;3.07;;;1.00;;
22963;SDS011;11648;49.306;6.934;2024-03-29T00:42:15;4.43;;;1.10;;
22963;SDS011;11648;49.306;6.934;2024-03-29T00:44:42;4.90;;;1.00;;
22963;SDS011;11648;49.306;6.934;2024-03-29T00:47:08;3.57;;;1.00;;
22963;SDS011;11648;49.306;6.934;2024-03-29T00:49:35;3.80;;;1.17;;
22963;SDS011;11648;49.306;6.934;2024-03-29T00:52:02;4.73;;;1.10;;
22963;SDS011;11648;49.306;6.934;2024-03-29T00:54:29;5.43;;;1.30;;
22963;SDS011;11648;49.306;6.934;2024-03-29T00:56:55;3.43;;;0.83;;
22963;SDS011;11648;49.306;6.934;2024-03-29T00:59:21;2.90;;;1.00;;
22963;SDS011;11648;49.306;6.934;2024-03-29T01:01:48;3.93;;;1.00;;
22963;SDS011;11648;49.306;6.934;2024-03-29T01:04:15;2.63;;;1.00;;
22963;SDS011;11648;49.306;6.934;2024-03-29T01:06:41;3.30;;;1.00;;
22963;SDS011;11648;49.306;6.934;2024-03-29T01:09:07;5.83;;;0.90;;
22963;SDS011;11648;49.306;6.934;2024-03-29T01:11:37;3.07;;;1.00;;
22963;SDS011;11648;49.306;6.934;2024-03-29T01:14:04;3.87;;;1.10;;
22963;SDS011;11648;49.306;6.934;2024-03-29T01:16:30;2.77;;;0.90;;
22963;SDS011;11648;49.306;6.934;2024-03-29T01:18:57;2.03;;;0.80;;
22963;SDS011;11648;49.306;6.934;2024-03-29T01:21:23;4.30;;;0.90;;
22963;SDS011;11648;49.306;6.934;2024-03-29T01:23:49;3.07;;;1.00;;
22963;SDS011;11648;49.306;6.934;2024-03-29T01:26:15;3.43;;;0.97;;
22963;SDS011;11648;49.306;6.934;2024-03-29T01:28:45;3.20;;;0.93;;
22963;SDS011;11648;49.306;6.934;2024-03-29T01:31:12;3.97;;;1.00;;
22963;SDS011;11648;49.306;6.934;2024-03-29T01:33:38;2.03;;;0.87;;
22963;SDS011;11648;49.306;6.934;2024-03-29T01:36:09;3.60;;;1.00;;
22963;SDS011;11648;49.306;6.934;2024-03-29T01:38:35;2.50;;;0.90;;
22963;SDS011;11648;49.306;6.934;2024-03-29T01:41:01;4.10;;;0.97;;
22963;SDS011;11648;49.306;6.934;2024-03-29T01:43:28;4.27;;;1.10;;
22963;SDS011;11648;49.306;6.934;2024-03-29T01:45:54;2.97;;;0.90;;
22963;SDS011;11648;49.306;6.934;2024-03-29T01:48:21;2.60;;;1.00;;
22963;SDS011;11648;49.306;6.934;2024-03-29T01:50:49;3.00;;;1.10;;
22963;SDS011;11648;49.306;6.934;2024-03-29T01:53:15;4.27;;;1.37;;
22963;SDS011;11648;49.306;6.934;2024-03-29T01:55:44;4.00;;;1.30;;
22963;SDS011;11648;49.306;6.934;2024-03-29T01:58:10;3.53;;;1.10;;
22963;SDS011;11648;49.306;6.934;2024-03-29T02:00:41;3.03;;;1.10;;
22963;SDS011;11648;49.306;6.934;2024-03-29T02:03:14;3.33;;;1.00;;
22963;SDS011;11648;49.306;6.934;2024-03-29T02:05:41;2.47;;;0.77;;
22963;SDS011;11648;49.306;6.934;2024-03-29T02:08:08;3.13;;;0.77;;
22963;SDS011;11648;49.306;6.934;2024-03-29T02:10:36;2.90;;;0.80;;
22963;SDS011;11648;49.306;6.934;2024-03-29T02:13:03;5.20;;;0.97;;
22963;SDS011;11648;49.306;6.934;2024-03-29T02:15:30;4.13;;;0.87;;
22963;SDS011;11648;49.306;6.934;2024-03-29T02:17:56;2.43;;;0.70;;
22963;SDS011;11648;49.306;6.934;2024-03-29T02:20:23;3.87;;;0.83;;
22963;SDS011;11648;49.306;6.934;2024-03-29T02:22:52;2.20;;;1.00;;
22963;SDS011;11648;49.306;6.934;2024-03-29T02:25:20;4.03;;;1.00;;
22963;SDS011;11648;49.306;6.934;2024-03-29T02:27:47;2.83;;;0.83;;
22963;SDS011;11648;49.306;6.934;2024-03-29T02:30:13;1.97;;;0.70;;
22963;SDS011;11648;49.306;6.934;2024-03-29T02:32:40;1.60;;;0.60;;
22963;SDS011;11648;49.306;6.934;2024-03-29T02:35:07;2.87;;;0.90;;
22963;SDS011;11648;49.306;6.934;2024-03-29T02:37:34;2.77;;;0.77;;
22963;SDS011;11648;49.306;6.934;2024-03-29T02:40:01;1.77;;;0.70;;
22963;SDS011;11648;49.306;6.934;2024-03-29T02:42:31;3.53;;;0.90;;
22963;SDS011;11648;49.306;6.934;2024-03-29T02:44:58;3.50;;;0.80;;
22963;SDS011;11648;49.306;6.934;2024-03-29T02:47:24;2.83;;;0.80;;
22963;SDS011;11648;49.306;6.934;2024-03-29T02:49:50;1.83;;;0.77;;
22963;SDS011;11648;49.306;6.934;2024-03-29T02:52:16;1.93;;;0.60;;
22963;SDS011;11648;49.306;6.934;2024-03-29T02:54:42;2.77;;;0.77;;
22963;SDS011;11648;49.306;6.934;2024-03-29T02:57:07;3.63;;;0.93;;
22963;SDS011;11648;49.306;6.934;2024-03-29T02:59:33;2.57;;;0.90;;
22963;SDS011;11648;49.306;6.934;2024-03-29T03:01:59;3.03;;;0.67;;
22963;SDS011;11648;49.306;6.934;2024-03-29T03:04:25;4.50;;;0.70;;
22963;SDS011;11648;49.306;6.934;2024-03-29T03:06:51;2.03;;;0.80;;
22963;SDS011;11648;49.306;6.934;2024-03-29T03:09:17;2.37;;;0.77;;
22963;SDS011;11648;49.306;6.934;2024-03-29T03:12:02;4.57;;;1.13;;
22963;SDS011;11648;49.306;6.934;2024-03-29T03:14:28;4.20;;;1.00;;
22963;SDS011;11648;49.306;6.934;2024-03-29T03:16:54;2.73;;;0.77;;
22963;SDS011;11648;49.306;6.934;2024-03-29T03:19:20;2.63;;;0.80;;
22963;SDS011;11648;49.306;6.934;2024-03-29T03:21:45;1.70;;;0.70;;
22963;SDS011;11648;49.306;6.934;2024-03-29T03:24:11;2.97;;;0.90;;
22963;SDS011;11648;49.306;6.934;2024-03-29T03:26:37;2.63;;;0.90;;
22963;SDS011;11648;49.306;6.934;2024-03-29T03:29:04;2.20;;;0.70;;
22963;SDS011;11648;49.306;6.934;2024-03-29T03:31:30;2.60;;;0.70;;
22963;SDS011;11648;49.306;6.934;2024-03-29T03:33:56;2.30;;;0.60;;
22963;SDS011;11648;49.306;6.934;2024-03-29T03:36:22;3.20;;;0.60;;
22963;SDS011;11648;49.306;6.934;2024-03-29T03:38:48;2.97;;;0.73;;
22963;SDS011;11648;49.306;6.934;2024-03-29T03:41:14;2.17;;;0.60;;
22963;SDS011;11648;49.306;6.934;2024-03-29T03:43:40;1.67;;;0.60;;
22963;SDS011;11648;49.306;6.934;2024-03-29T03:46:06;4.57;;;0.80;;
22963;SDS011;11648;49.306;6.934;2024-03-29T03:48:32;3.43;;;0.70;;
22963;SDS011;11648;49.306;6.934;2024-03-29T03:50:58;2.63;;;0.70;;
22963;SDS011;11648;49.306;6.934;2024-03-29T03:53:23;3.13;;;0.70;;
22963;SDS011;11648;49.306;6.934;2024-03-29T03:55:49;2.30;;;0.80;;
22963;SDS011;11648;49.306;6.934;2024-03-29T03:58:15;1.47;;;0.53;;
22963;SDS011;11648;49.306;6.934;2024-03-29T04:00:41;2.43;;;0.70;;
22963;SDS011;11648;49.306;6.934;2024-03-29T04:03:07;2.27;;;0.83;;
22963;SDS011;11648;49.306;6.934;2024-03-29T04:05:36;2.33;;;0.70;;
22963;SDS011;11648;49.306;6.934;2024-03-29T04:08:02;2.17;;;0.73;;
22963;SDS011;11648;49.306;6.934;2024-03-29T04:10:29;2.70;;;0.80;;
22963;SDS011;11648;49.306;6.934;2024-03-29T04:12:54;2.90;;;0.70;;
22963;SDS011;11648;49.306;6.934;2024-03-29T04:15:20;1.20;;;0.60;;
22963;SDS011;11648;49.306;6.934;2024-03-29T04:17:46;2.53;;;0.70;;
22963;SDS011;11648;49.306;6.934;2024-03-29T04:20:12;2.37;;;0.70;;
22963;SDS011;11648;49.306;6.934;2024-03-29T04:22:38;1.90;;;0.60;;
22963;SDS011;11648;49.306;6.934;2024-03-29T04:25:04;2.27;;;0.70;;
22963;SDS011;11648;49.306;6.934;2024-03-29T04:27:29;2.87;;;0.70;;
22963;SDS011;11648;49.306;6.934;2024-03-29T04:29:55;1.77;;;0.80;;
22963;SDS011;11648;49.306;6.934;2024-03-29T04:32:21;2.13;;;0.63;;
22963;SDS011;11648;49.306;6.934;2024-03-29T04:34:50;2.57;;;0.80;;
22963;SDS011;11648;49.306;6.934;2024-03-29T04:37:17;2.43;;;0.80;;
22963;SDS011;11648;49.306;6.934;2024-03-29T04:39:43;2.53;;;0.80;;
22963;SDS011;11648;49.306;6.934;2024-03-29T04:42:10;2.17;;;0.77;;
22963;SDS011;11648;49.306;6.934;2024-03-29T04:44:37;2.47;;;0.80;;
22963;SDS011;11648;49.306;6.934;2024-03-29T04:47:03;4.30;;;0.97;;
22963;SDS011;11648;49.306;6.934;2024-03-29T04:49:29;2.23;;;0.80;;
22963;SDS011;11648;49.306;6.934;2024-03-29T04:52:05;1.40;;;0.60;;
22963;SDS011;11648;49.306;6.934;2024-03-29T04:54:32;1.70;;;0.63;;
22963;SDS011;11648;49.306;6.934;2024-03-29T04:57:02;2.00;;;0.70;;
22963;SDS011;11648;49.306;6.934;2024-03-29T04:59:29;3.40;;;0.70;;
22963;SDS011;11648;49.306;6.934;2024-03-29T05:01:55;2.00;;;0.73;;
22963;SDS011;11648;49.306;6.934;2024-03-29T05:04:22;2.77;;;0.83;;
22963;SDS011;11648;49.306;6.934;2024-03-29T05:06:52;3.30;;;0.93;;
22963;SDS011;11648;49.306;6.934;2024-03-29T05:09:19;2.50;;;0.70;;
22963;SDS011;11648;49.306;6.934;2024-03-29T05:11:45;2.90;;;0.90;;
22963;SDS011;11648;49.306;6.934;2024-03-29T05:14:13;2.60;;;0.77;;
22963;SDS011;11648;49.306;6.934;2024-03-29T05:16:40;1.93;;;0.80;;
22963;SDS011;11648;49.306;6.934;2024-03-29T05:19:07;2.70;;;1.00;;
22963;SDS011;11648;49.306;6.934;2024-03-29T05:21:32;2.67;;;0.90;;
22963;SDS011;11648;49.306;6.934;2024-03-29T05:23:58;1.97;;;0.70;;
22963;SDS011;11648;49.306;6.934;2024-03-29T05:26:24;3.40;;;0.83;;
22963;SDS011;11648;49.306;6.934;2024-03-29T05:28:50;2.10;;;0.80;;
22963;SDS011;11648;49.306;6.934;2024-03-29T05:31:16;3.17;;;0.70;;
22963;SDS011;11648;49.306;6.934;2024-03-29T05:33:42;2.27;;;0.60;;
22963;SDS011;11648;49.306;6.934;2024-03-29T05:36:08;3.70;;;0.70;;
22963;SDS011;11648;49.306;6.934;2024-03-29T05:38:36;1.90;;;0.70;;
22963;SDS011;11648;49.306;6.934;2024-03-29T05:41:03;1.90;;;0.60;;
22963;SDS011;11648;49.306;6.934;2024-03-29T05:43:29;3.63;;;0.73;;
22963;SDS011;11648;49.306;6.934;2024-03-29T05:45:55;2.37;;;0.80;;
22963;SDS011;11648;49.306;6.934;2024-03-29T05:48:21;2.87;;;0.93;;
22963;SDS011;11648;49.306;6.934;2024-03-29T05:50:47;2.73;;;0.80;;
22963;SDS011;11648;49.306;6.934;2024-03-29T05:53:13;2.43;;;0.80;;
22963;SDS011;11648;49.306;6.934;2024-03-29T05:55:39;1.60;;;0.80;;
22963;SDS011;11648;49.306;6.934;2024-03-29T05:58:05;2.73;;;1.00;;
22963;SDS011;11648;49.306;6.934;2024-03-29T06:00:32;2.50;;;0.70;;
22963;SDS011;11648;49.306;6.934;2024-03-29T06:03:01;3.50;;;0.70;;
22963;SDS011;11648;49.306;6.934;2024-03-29T06:05:30;3.07;;;0.80;;
22963;SDS011;11648;49.306;6.934;2024-03-29T06:07:56;3.27;;;0.70;;
22963;SDS011;11648;49.306;6.934;2024-03-29T06:10:22;2.50;;;0.60;;
22963;SDS011;11648;49.306;6.934;2024-03-29T06:12:48;3.33;;;1.10;;
22963;SDS011;11648;49.306;6.934;2024-03-29T06:15:14;2.00;;;0.93;;
22963;SDS011;11648;49.306;6.934;2024-03-29T06:17:58;1.53;;;0.70;;
22963;SDS011;11648;49.306;6.934;2024-03-29T06:20:24;4.57;;;0.90;;
22963;SDS011;11648;49.306;6.934;2024-03-29T06:22:50;4.17;;;0.80;;
22963;SDS011;11648;49.306;6.934;2024-03-29T06:25:16;1.97;;;0.70;;
22963;SDS011;11648;49.306;6.934;2024-03-29T06:27:42;2.30;;;0.70;;
22963;SDS011;11648;49.306;6.934;2024-03-29T06:30:13;3.97;;;0.80;;
22963;SDS011;11648;49.306;6.934;2024-03-29T06:32:42;2.10;;;0.80;;
22963;SDS011;11648;49.306;6.934;2024-03-29T06:35:08;3.97;;;0.83;;
22963;SDS011;11648;49.306;6.934;2024-03-29T06:37:34;2.13;;;0.83;;
22963;SDS011;11648;49.306;6.934;2024-03-29T06:40:00;2.27;;;0.90;;
22963;SDS011;11648;49.306;6.934;2024-03-29T06:42:27;1.63;;;0.70;;
22963;SDS011;11648;49.306;6.934;2024-03-29T06:44:53;2.70;;;0.70;;
22963;SDS011;11648;49.306;6.934;2024-03-29T06:47:20;1.40;;;0.80;;
22963;SDS011;11648;49.306;6.934;2024-03-29T06:49:46;2.03;;;0.80;;
22963;SDS011;11648;49.306;6.934;2024-03-29T06:52:12;2.40;;;0.90;;
22963;SDS011;11648;49.306;6.934;2024-03-29T06:54:38;1.47;;;0.77;;
22963;SDS011;11648;49.306;6.934;2024-03-29T06:57:04;2.63;;;0.90;;
22963;SDS011;11648;49.306;6.934;2024-03-29T06:59:29;2.27;;;0.90;;
22963;SDS011;11648;49.306;6.934;2024-03-29T07:01:55;3.03;;;1.00;;
22963;SDS011;11648;49.306;6.934;2024-03-29T07:04:22;6.13;;;0.80;;
22963;SDS011;11648;49.306;6.934;2024-03-29T07:06:49;1.90;;;0.70;;
22963;SDS011;11648;49.306;6.934;2024-03-29T07:09:19;1.60;;;0.70;;
22963;SDS011;11648;49.306;6.934;2024-03-29T07:11:46;1.53;;;0.80;;
22963;SDS011;11648;49.306;6.934;2024-03-29T07:14:16;2.07;;;0.80;;
22963;SDS011;11648;49.306;6.934;2024-03-29T07:16:42;2.20;;;0.77;;
22963;SDS011;11648;49.306;6.934;2024-03-29T07:19:09;4.17;;;0.93;;
22963;SDS011;11648;49.306;6.934;2024-03-29T07:21:42;1.77;;;0.70;;
22963;SDS011;11648;49.306;6.934;2024-03-29T07:24:10;2.30;;;0.77;;
22963;SDS011;11648;49.306;6.934;2024-03-29T07:26:36;4.03;;;1.40;;
22963;SDS011;11648;49.306;6.934;2024-03-29T07:29:02;3.67;;;0.80;;
22963;SDS011;11648;49.306;6.934;2024-03-29T07:31:31;4.13;;;0.97;;
22963;SDS011;11648;49.306;6.934;2024-03-29T07:33:57;5.23;;;0.80;;
22963;SDS011;11648;49.306;6.934;2024-03-29T07:36:23;3.00;;;0.80;;
22963;SDS011;11648;49.306;6.934;2024-03-29T07:38:51;4.73;;;1.20;;
22963;SDS011;11648;49.306;6.934;2024-03-29T07:41:17;3.10;;;1.03;;
22963;SDS011;11648;49.306;6.934;2024-03-29T07:43:52;2.93;;;1.20;;
22963;SDS011;11648;49.306;6.934;2024-03-29T07:46:22;4.10;;;1.30;;
22963;SDS011;11648;49.306;6.934;2024-03-29T07:48:49;3.33;;;1.20;;
22963;SDS011;11648;49.306;6.934;2024-03-29T07:51:15;2.30;;;1.03;;
22963;SDS011;11648;49.306;6.934;2024-03-29T07:53:41;5.33;;;1.17;;
22963;SDS011;11648;49.306;6.934;2024-03-29T07:56:07;2.23;;;0.87;;
22963;SDS011;11648;49.306;6.934;2024-03-29T07:58:33;3.10;;;0.90;;
22963;SDS011;11648;49.306;6.934;2024-03-29T08:00:59;3.27;;;1.00;;
22963;SDS011;11648;49.306;6.934;2024-03-29T08:03:25;3.47;;;1.10;;
22963;SDS011;11648;49.306;6.934;2024-03-29T08:05:57;2.97;;;1.20;;
22963;SDS011;11648;49.306;6.934;2024-03-29T08:08:30;3.30;;;1.33;;
22963;SDS011;11648;49.306;6.934;2024-03-29T08:10:56;2.37;;;1.00;;
22963;SDS011;11648;49.306;6.934;2024-03-29T08:13:23;2.43;;;0.93;;
22963;SDS011;11648;49.306;6.934;2024-03-29T08:15:55;3.43;;;1.20;;
22963;SDS011;11648;49.306;6.934;2024-03-29T08:18:27;2.17;;;0.93;;
22963;SDS011;11648;49.306;6.934;2024-03-29T08:20:54;2.53;;;1.10;;
22963;SDS011;11648;49.306;6.934;2024-03-29T08:23:21;3.17;;;1.00;;
22963;SDS011;11648;49.306;6.934;2024-03-29T08:25:47;5.33;;;1.20;;
22963;SDS011;11648;49.306;6.934;2024-03-29T08:28:14;4.27;;;1.00;;
22963;SDS011;11648;49.306;6.934;2024-03-29T08:30:40;4.13;;;1.20;;
22963;SDS011;11648;49.306;6.934;2024-03-29T08:33:06;4.03;;;1.20;;
22963;SDS011;11648;49.306;6.934;2024-03-29T08:35:32;3.50;;;1.20;;
22963;SDS011;11648;49.306;6.934;2024-03-29T08:37:59;4.47;;;1.10;;
22963;SDS011;11648;49.306;6.934;2024-03-29T08:40:27;5.47;;;1.20;;
22963;SDS011;11648;49.306;6.934;2024-03-29T08:42:55;3.27;;;1.20;;
22963;SDS011;11648;49.306;6.934;2024-03-29T08:45:21;5.70;;;1.67;;
22963;SDS011;11648;49.306;6.934;2024-03-29T08:47:48;4.67;;;1.70;;
22963;SDS011;11648;49.306;6.934;2024-03-29T08:50:14;4.43;;;1.63;;
22963;SDS011;11648;49.306;6.934;2024-03-29T08:52:40;3.22;;;1.30;;
22963;SDS011;11648;49.306;6.934;2024-03-29T08:55:06;3.27;;;1.30;;
22963;SDS011;11648;49.306;6.934;2024-03-29T08:57:33;3.67;;;1.50;;
22963;SDS011;11648;49.306;6.934;2024-03-29T08:59:59;5.18;;;1.60;;
22963;SDS011;11648;49.306;6.934;2024-03-29T09:02:25;5.70;;;1.47;;
22963;SDS011;11648;49.306;6.934;2024-03-29T09:04:51;3.07;;;1.20;;
22963;SDS011;11648;49.306;6.934;2024-03-29T09:07:18;2.63;;;1.30;;
22963;SDS011;11648;49.306;6.934;2024-03-29T09:09:43;4.40;;;1.40;;
22963;SDS011;11648;49.306;6.934;2024-03-29T09:12:09;4.40;;;1.30;;
22963;SDS011;11648;49.306;6.934;2024-03-29T09:14:36;3.33;;;1.30;;
22963;SDS011;11648;49.306;6.934;2024-03-29T09:17:02;4.43;;;1.37;;
22963;SDS011;11648;49.306;6.934;2024-03-29T09:19:28;4.17;;;1.30;;
22963;SDS011;11648;49.306;6.934;2024-03-29T09:21:56;5.20;;;1.40;;
22963;SDS011;11648;49.306;6.934;2024-03-29T09:24:22;3.93;;;1.30;;
22963;SDS011;11648;49.306;6.934;2024-03-29T09:26:48;3.10;;;1.27;;
22963;SDS011;11648;49.306;6.934;2024-03-29T09:29:15;5.23;;;1.73;;
22963;SDS011;11648;49.306;6.934;2024-03-29T09:31:42;4.53;;;1.50;;
22963;SDS011;11648;49.306;6.934;2024-03-29T09:34:08;6.07;;;1.50;;
22963;SDS011;11648;49.306;6.934;2024-03-29T09:36:34;3.53;;;1.57;;
22963;SDS011;11648;49.306;6.934;2024-03-29T09:39:00;5.23;;;1.50;;
22963;SDS011;11648;49.306;6.934;2024-03-29T09:41:26;3.70;;;1.20;;
22963;SDS011;11648;49.306;6.934;2024-03-29T09:43:54;5.43;;;1.60;;
22963;SDS011;11648;49.306;6.934;2024-03-29T09:46:25;3.50;;;1.37;;
22963;SDS011;11648;49.306;6.934;2024-03-29T09:48:53;3.17;;;1.30;;
22963;SDS011;11648;49.306;6.934;2024-03-29T09:51:20;2.93;;;1.17;;
22963;SDS011;11648;49.306;6.934;2024-03-29T09:53:47;5.57;;;1.80;;
22963;SDS011;11648;49.306;6.934;2024-03-29T09:56:14;10.10;;;1.90;;
22963;SDS011;11648;49.306;6.934;2024-03-29T09:58:40;3.67;;;1.67;;
22963;SDS011;11648;49.306;6.934;2024-03-29T10:01:06;5.43;;;1.83;;
22963;SDS011;11648;49.306;6.934;2024-03-29T10:03:38;3.93;;;1.50;;
22963;SDS011;11648;49.306;6.934;2024-03-29T10:06:05;4.50;;;1.50;;
22963;SDS011;11648;49.306;6.934;2024-03-29T10:08:35;4.50;;;1.87;;
22963;SDS011;11648;49.306;6.934;2024-03-29T10:11:02;4.40;;;1.90;;
22963;SDS011;11648;49.306;6.934;2024-03-29T10:13:28;5.70;;;2.03;;
22963;SDS011;11648;49.306;6.934;2024-03-29T10:15:55;4.90;;;1.87;;
22963;SDS011;11648;49.306;6.934;2024-03-29T10:18:25;3.37;;;1.50;;
22963;SDS011;11648;49.306;6.934;2024-03-29T10:21:05;4.43;;;1.53;;
22963;SDS011;11648;49.306;6.934;2024-03-29T10:23:33;3.93;;;1.20;;
22963;SDS011;11648;49.306;6.934;2024-03-29T10:26:01;4.13;;;1.57;;
22963;SDS011;11648;49.306;6.934;2024-03-29T10:28:30;2.77;;;1.30;;
22963;SDS011;11648;49.306;6.934;2024-03-29T10:31:01;3.97;;;1.53;;
22963;SDS011;11648;49.306;6.934;2024-03-29T10:33:31;4.43;;;1.57;;
22963;SDS011;11648;49.306;6.934;2024-03-29T10:36:01;4.10;;;1.67;;
22963;SDS011;11648;49.306;6.934;2024-03-29T10:38:30;4.00;;;1.67;;
22963;SDS011;11648;49.306;6.934;2024-03-29T10:40:56;4.73;;;2.00;;
22963;SDS011;11648;49.306;6.934;2024-03-29T10:43:22;6.40;;;2.40;;
22963;SDS011;11648;49.306;6.934;2024-03-29T10:45:50;2.63;;;1.63;;
22963;SDS011;11648;49.306;6.934;2024-03-29T10:48:19;3.73;;;1.80;;
22963;SDS011;11648;49.306;6.934;2024-03-29T10:50:47;4.87;;;1.80;;
22963;SDS011;11648;49.306;6.934;2024-03-29T10:53:16;3.97;;;1.60;;
22963;SDS011;11648;49.306;6.934;2024-03-29T10:55:42;3.77;;;1.73;;
22963;SDS011;11648;49.306;6.934;2024-03-29T10:58:11;2.97;;;1.20;;
22963;SDS011;11648;49.306;6.934;2024-03-29T11:00:46;2.10;;;1.20;;
22963;SDS011;11648;49.306;6.934;2024-03-29T11:06:20;4.67;;;1.17;;
22963;SDS011;11648;49.306;6.934;2024-03-29T11:08:52;2.93;;;1.13;;
22963;SDS011;11648;49.306;6.934;2024-03-29T11:11:20;2.80;;;1.20;;
22963;SDS011;11648;49.306;6.934;2024-03-29T11:13:53;4.50;;;1.20;;
22963;SDS011;11648;49.306;6.934;2024-03-29T11:16:28;2.80;;;1.23;;
22963;SDS011;11648;49.306;6.934;2024-03-29T11:18:54;2.47;;;0.70;;
22963;SDS011;11648;49.306;6.934;2024-03-29T11:21:20;3.37;;;0.90;;
22963;SDS011;11648;49.306;6.934;2024-03-29T11:23:50;2.60;;;0.80;;
22963;SDS011;11648;49.306;6.934;2024-03-29T11:26:18;3.17;;;1.00;;
22963;SDS011;11648;49.306;6.934;2024-03-29T11:28:51;3.90;;;0.80;;
22963;SDS011;11648;49.306;6.934;2024-03-29T11:31:21;3.13;;;0.90;;
22963;SDS011;11648;49.306;6.934;2024-03-29T11:33:48;3.20;;;1.00;;
22963;SDS011;11648;49.306;6.934;2024-03-29T11:36:15;3.23;;;0.70;;
22963;SDS011;11648;49.306;6.934;2024-03-29T11:38:42;3.00;;;0.90;;
22963;SDS011;11648;49.306;6.934;2024-03-29T11:41:14;4.43;;;1.30;;
22963;SDS011;11648;49.306;6.934;2024-03-29T11:43:42;3.87;;;1.50;;
22963;SDS011;11648;49.306;6.934;2024-03-29T11:46:14;4.07;;;1.33;;
22963;SDS011;11648;49.306;6.934;2024-03-29T11:48:44;3.10;;;1.30;;
22963;SDS011;11648;49.306;6.934;2024-03-29T11:51:12;2.83;;;1.30;;
22963;SDS011;11648;49.306;6.934;2024-03-29T11:53:42;3.83;;;1.33;;
22963;SDS011;11648;49.306;6.934;2024-03-29T11:56:09;2.70;;;1.27;;
22963;SDS011;11648;49.306;6.934;2024-03-29T11:58:39;3.13;;;1.40;;
22963;SDS011;11648;49.306;6.934;2024-03-29T12:01:06;4.07;;;1.70;;
22963;SDS011;11648;49.306;6.934;2024-03-29T12:03:39;7.13;;;1.43;;
22963;SDS011;11648;49.306;6.934;2024-03-29T12:06:06;4.53;;;1.53;;
22963;SDS011;11648;49.306;6.934;2024-03-29T12:08:33;3.67;;;1.20;;
22963;SDS011;11648;49.306;6.934;2024-03-29T12:11:02;3.47;;;1.53;;
22963;SDS011;11648;49.306;6.934;2024-03-29T12:13:29;3.57;;;1.30;;
22963;SDS011;11648;49.306;6.934;2024-03-29T12:15:55;2.57;;;1.00;;
22963;SDS011;11648;49.306;6.934;2024-03-29T12:18:22;3.63;;;1.40;;
22963;SDS011;11648;49.306;6.934;2024-03-29T12:20:49;2.90;;;1.30;;
22963;SDS011;11648;49.306;6.934;2024-03-29T12:23:16;3.40;;;1.10;;
22963;SDS011;11648;49.306;6.934;2024-03-29T12:25:43;3.47;;;1.10;;
22963;SDS011;11648;49.306;6.934;2024-03-29T12:28:13;2.10;;;0.80;;
22963;SDS011;11648;49.306;6.934;2024-03-29T12:30:40;2.23;;;1.00;;
22963;SDS011;11648;49.306;6.934;2024-03-29T12:33:15;2.20;;;0.93;;
22963;SDS011;11648;49.306;6.934;2024-03-29T12:35:47;1.90;;;0.67;;
22963;SDS011;11648;49.306;6.934;2024-03-29T12:38:21;1.67;;;0.70;;
22963;SDS011;11648;49.306;6.934;2024-03-29T12:40:48;3.47;;;1.10;;
22963;SDS011;11648;49.306;6.934;2024-03-29T12:43:20;2.47;;;0.77;;
22963;SDS011;11648;49.306;6.934;2024-03-29T12:45:48;2.77;;;0.70;;
22963;SDS011;11648;49.306;6.934;2024-03-29T12:48:16;3.43;;;0.70;;
22963;SDS011;11648;49.306;6.934;2024-03-29T12:50:44;5.00;;;1.03;;
22963;SDS011;11648;49.306;6.934;2024-03-29T12:53:11;3.27;;;0.90;;
22963;SDS011;11648;49.306;6.934;2024-03-29T12:55:39;2.70;;;1.00;;
22963;SDS011;11648;49.306;6.934;2024-03-29T12:58:07;2.80;;;0.90;;
22963;SDS011;11648;49.306;6.934;2024-03-29T13:00:37;3.27;;;1.10;;
22963;SDS011;11648;49.306;6.934;2024-03-29T13:03:03;2.63;;;1.00;;
22963;SDS011;11648;49.306;6.934;2024-03-29T13:05:30;2.60;;;1.10;;
22963;SDS011;11648;49.306;6.934;2024-03-29T13:08:03;2.90;;;1.00;;
22963;SDS011;11648;49.306;6.934;2024-03-29T13:10:30;3.17;;;0.80;;
22963;SDS011;11648;49.306;6.934;2024-03-29T13:12:56;1.90;;;0.70;;
22963;SDS011;11648;49.306;6.934;2024-03-29T13:15:23;3.13;;;0.70;;
22963;SDS011;11648;49.306;6.934;2024-03-29T13:17:51;2.33;;;0.60;;
22963;SDS011;11648;49.306;6.934;2024-03-29T13:20:20;1.20;;;0.50;;
22963;SDS011;11648;49.306;6.934;2024-03-29T13:22:47;1.43;;;0.60;;
22963;SDS011;11648;49.306;6.934;2024-03-29T13:25:15;1.73;;;0.60;;
22963;SDS011;11648;49.306;6.934;2024-03-29T13:27:42;2.30;;;0.60;;
22963;SDS011;11648;49.306;6.934;2024-03-29T13:30:09;1.13;;;0.50;;
22963;SDS011;11648;49.306;6.934;2024-03-29T13:32:40;1.73;;;0.47;;
22963;SDS011;11648;49.306;6.934;2024-03-29T13:35:07;1.50;;;0.70;;
22963;SDS011;11648;49.306;6.934;2024-03-29T13:37:43;1.93;;;0.60;;
22963;SDS011;11648;49.306;6.934;2024-03-29T13:40:14;1.97;;;0.50;;
22963;SDS011;11648;49.306;6.934;2024-03-29T13:42:40;1.17;;;0.50;;
22963;SDS011;11648;49.306;6.934;2024-03-29T13:45:07;2.77;;;0.90;;
22963;SDS011;11648;49.306;6.934;2024-03-29T13:47:36;4.03;;;1.10;;
22963;SDS011;11648;49.306;6.934;2024-03-29T13:50:07;4.20;;;1.50;;
22963;SDS011;11648;49.306;6.934;2024-03-29T13:52:33;2.50;;;1.10;;
22963;SDS011;11648;49.306;6.934;2024-03-29T13:55:00;2.80;;;0.90;;
22963;SDS011;11648;49.306;6.934;2024-03-29T13:57:27;2.53;;;1.03;;
22963;SDS011;11648;49.306;6.934;2024-03-29T13:59:53;2.70;;;1.10;;
22963;SDS011;11648;49.306;6.934;2024-03-29T14:02:19;1.93;;;0.90;;
22963;SDS011;11648;49.306;6.934;2024-03-29T14:04:46;2.07;;;0.80;;
22963;SDS011;11648;49.306;6.934;2024-03-29T14:07:13;2.20;;;0.60;;
22963;SDS011;11648;49.306;6.934;2024-03-29T14:09:41;2.50;;;0.60;;
22963;SDS011;11648;49.306;6.934;2024-03-29T14:12:07;2.17;;;0.70;;
22963;SDS011;11648;49.306;6.934;2024-03-29T14:14:34;2.60;;;0.70;;
22963;SDS011;11648;49.306;6.934;2024-03-29T14:17:00;2.07;;;0.60;;
22963;SDS011;11648;49.306;6.934;2024-03-29T14:19:37;3.83;;;0.70;;
22963;SDS011;11648;49.306;6.934;2024-03-29T14:22:03;2.30;;;0.70;;
22963;SDS011;11648;49.306;6.934;2024-03-29T14:24:30;3.03;;;1.00;;
22963;SDS011;11648;49.306;6.934;2024-03-29T14:26:58;2.67;;;0.90;;
22963;SDS011;11648;49.306;6.934;2024-03-29T14:29:25;2.50;;;0.97;;
22963;SDS011;11648;49.306;6.934;2024-03-29T14:31:51;3.23;;;1.30;;
22963;SDS011;11648;49.306;6.934;2024-03-29T14:34:19;3.30;;;1.50;;
22963;SDS011;11648;49.306;6.934;2024-03-29T14:36:45;2.57;;;1.10;;
22963;SDS011;11648;49.306;6.934;2024-03-29T14:39:11;2.20;;;1.20;;
22963;SDS011;11648;49.306;6.934;2024-03-29T14:41:41;3.57;;;1.20;;
22963;SDS011;11648;49.306;6.934;2024-03-29T14:44:08;3.33;;;1.10;;
22963;SDS011;11648;49.306;6.934;2024-03-29T14:46:35;2.57;;;1.17;;
22963;SDS011;11648;49.306;6.934;2024-03-29T14:49:01;2.37;;;1.20;;
22963;SDS011;11648;49.306;6.934;2024-03-29T14:51:31;5.10;;;1.50;;